sensor_id;sensor_type;location;lat;lon;timestamp;pressure;altitude;pressure_sealevel;temperature;humidity
12666;BME280;58531;59.050;17.416;2023-04-08T00:00:43;102399.00;;;2.00;83.39
12666;BME280;58531;59.050;17.416;2023-04-08T00:03:09;102395.28;;;2.01;83.42
12666;BME280;58531;59.050;17.416;2023-04-08T00:05:36;102396.03;;;2.02;83.49
12666;BME280;58531;59.050;17.416;2023-04-08T00:08:04;102397.13;;;2.01;83.51
12666;BME280;58531;59.050;17.416;2023-04-08T00:10:31;102400.97;;;2.03;83.28
12666;BME280;58531;59.050;17.416;2023-04-08T00:12:59;102397.66;;;2.06;82.84
12666;BME280;58531;59.050;17.416;2023-04-08T00:15:26;102397.66;;;2.06;82.72
12666;BME280;58531;59.050;17.416;2023-04-08T00:17:53;102401.50;;;2.09;83.17
12666;BME280;58531;59.050;17.416;2023-04-08T00:20:20;102394.03;;;2.11;82.55
12666;BME280;58531;59.050;17.416;2023-04-08T00:22:46;102395.56;;;2.12;82.87
12666;BME280;58531;59.050;17.416;2023-04-08T00:25:13;102393.25;;;2.10;82.30
12666;BME280;58531;59.050;17.416;2023-04-08T00:27:40;102401.94;;;2.11;82.16
12666;BME280;58531;59.050;17.416;2023-04-08T00:30:09;102406.09;;;2.12;82.04
12666;BME280;58531;59.050;17.416;2023-04-08T00:32:36;102396.00;;;2.14;82.01
12666;BME280;58531;59.050;17.416;2023-04-08T00:35:03;102393.38;;;2.14;82.41
12666;BME280;58531;59.050;17.416;2023-04-08T00:37:30;102399.06;;;2.16;81.77
12666;BME280;58531;59.050;17.416;2023-04-08T00:39:57;102392.69;;;2.17;81.73
12666;BME280;58531;59.050;17.416;2023-04-08T00:42:24;102387.44;;;2.17;81.56
12666;BME280;58531;59.050;17.416;2023-04-08T00:44:50;102388.97;;;2.18;81.59
12666;BME280;58531;59.050;17.416;2023-04-08T00:47:19;102402.47;;;2.16;81.64
12666;BME280;58531;59.050;17.416;2023-04-08T00:49:46;102396.44;;;2.16;81.52
12666;BME280;58531;59.050;17.416;2023-04-08T00:52:12;102396.88;;;2.18;81.37
12666;BME280;58531;59.050;17.416;2023-04-08T00:54:40;102396.09;;;2.17;81.91
12666;BME280;58531;59.050;17.416;2023-04-08T00:57:07;102399.38;;;2.14;81.66
12666;BME280;58531;59.050;17.416;2023-04-08T00:59:34;102402.81;;;2.15;81.16
12666;BME280;58531;59.050;17.416;2023-04-08T01:02:07;102400.50;;;2.13;81.71
12666;BME280;58531;59.050;17.416;2023-04-08T01:04:46;102394.91;;;2.15;81.31
12666;BME280;58531;59.050;17.416;2023-04-08T01:07:17;102398.63;;;2.14;81.27
12666;BME280;58531;59.050;17.416;2023-04-08T01:09:47;102400.16;;;2.15;81.50
12666;BME280;58531;59.050;17.416;2023-04-08T01:12:21;102403.25;;;2.17;80.78
12666;BME280;58531;59.050;17.416;2023-04-08T01:14:56;102399.50;;;2.18;80.52
12666;BME280;58531;59.050;17.416;2023-04-08T01:17:24;102395.75;;;2.19;80.96
12666;BME280;58531;59.050;17.416;2023-04-08T01:19:53;102394.66;;;2.20;81.02
12666;BME280;58531;59.050;17.416;2023-04-08T01:22:26;102394.31;;;2.21;80.93
12666;BME280;58531;59.050;17.416;2023-04-08T01:25:00;102395.09;;;2.22;80.50
12666;BME280;58531;59.050;17.416;2023-04-08T01:27:30;102396.19;;;2.21;80.65
12666;BME280;58531;59.050;17.416;2023-04-08T01:29:58;102398.84;;;2.21;80.61
12666;BME280;58531;59.050;17.416;2023-04-08T01:32:27;102397.72;;;2.22;80.42
12666;BME280;58531;59.050;17.416;2023-04-08T01:34:55;102403.09;;;2.25;80.22
12666;BME280;58531;59.050;17.416;2023-04-08T01:37:24;102402.34;;;2.25;80.44
12666;BME280;58531;59.050;17.416;2023-04-08T01:39:53;102405.06;;;2.28;79.93
12666;BME280;58531;59.050;17.416;2023-04-08T01:42:21;102404.31;;;2.28;79.58
12666;BME280;58531;59.050;17.416;2023-04-08T01:44:51;102406.69;;;2.32;79.45
12666;BME280;58531;59.050;17.416;2023-04-08T01:47:19;102411.94;;;2.32;79.46
12666;BME280;58531;59.050;17.416;2023-04-08T01:49:47;102414.94;;;2.31;79.26
12666;BME280;58531;59.050;17.416;2023-04-08T01:52:15;102406.69;;;2.32;78.89
12666;BME280;58531;59.050;17.416;2023-04-08T01:54:43;102410.84;;;2.33;79.07
12666;BME280;58531;59.050;17.416;2023-04-08T01:57:13;102411.28;;;2.35;78.67
12666;BME280;58531;59.050;17.416;2023-04-08T01:59:44;102407.13;;;2.34;78.92
12666;BME280;58531;59.050;17.416;2023-04-08T02:02:15;102408.22;;;2.33;79.28
12666;BME280;58531;59.050;17.416;2023-04-08T02:04:43;102408.22;;;2.33;79.47
12666;BME280;58531;59.050;17.416;2023-04-08T02:07:10;102411.94;;;2.32;79.46
12666;BME280;58531;59.050;17.416;2023-04-08T02:09:37;102402.63;;;2.35;79.16
12666;BME280;58531;59.050;17.416;2023-04-08T02:12:04;102404.47;;;2.34;78.75
12666;BME280;58531;59.050;17.416;2023-04-08T02:14:31;102414.34;;;2.37;79.21
12666;BME280;58531;59.050;17.416;2023-04-08T02:17:02;102406.44;;;2.37;78.64
12666;BME280;58531;59.050;17.416;2023-04-08T02:19:36;102409.44;;;2.36;79.34
12666;BME280;58531;59.050;17.416;2023-04-08T02:22:11;102410.19;;;2.36;79.24
12666;BME280;58531;59.050;17.416;2023-04-08T02:24:39;102406.00;;;2.35;78.63
12666;BME280;58531;59.050;17.416;2023-04-08T02:27:08;102408.66;;;2.35;78.67
12666;BME280;58531;59.050;17.416;2023-04-08T02:29:36;102409.06;;;2.37;79.24
12666;BME280;58531;59.050;17.416;2023-04-08T02:32:07;102410.19;;;2.36;79.02
12666;BME280;58531;59.050;17.416;2023-04-08T02:34:39;102407.13;;;2.34;78.99
12666;BME280;58531;59.050;17.416;2023-04-08T02:37:06;102407.97;;;2.38;78.94
12666;BME280;58531;59.050;17.416;2023-04-08T02:39:34;102406.78;;;2.36;78.26
12666;BME280;58531;59.050;17.416;2023-04-08T02:42:01;102404.16;;;2.36;78.75
12666;BME280;58531;59.050;17.416;2023-04-08T02:44:27;102410.53;;;2.35;78.86
12666;BME280;58531;59.050;17.416;2023-04-08T02:46:54;102406.78;;;2.36;78.72
12666;BME280;58531;59.050;17.416;2023-04-08T02:49:21;102413.16;;;2.35;79.02
12666;BME280;58531;59.050;17.416;2023-04-08T02:51:49;102409.66;;;2.31;79.12
12666;BME280;58531;59.050;17.416;2023-04-08T02:54:16;102409.22;;;2.29;79.18
12666;BME280;58531;59.050;17.416;2023-04-08T02:56:43;102416.13;;;2.33;78.83
12666;BME280;58531;59.050;17.416;2023-04-08T02:59:09;102423.72;;;2.35;78.68
12666;BME280;58531;59.050;17.416;2023-04-08T03:01:36;102415.13;;;2.38;78.15
12666;BME280;58531;59.050;17.416;2023-04-08T03:04:03;102417.34;;;2.36;78.22
12666;BME280;58531;59.050;17.416;2023-04-08T03:06:30;102425.69;;;2.38;78.43
12666;BME280;58531;59.050;17.416;2023-04-08T03:08:59;102424.91;;;2.37;78.08
12666;BME280;58531;59.050;17.416;2023-04-08T03:11:25;102424.91;;;2.37;78.48
12666;BME280;58531;59.050;17.416;2023-04-08T03:13:52;102423.34;;;2.36;78.49
12666;BME280;58531;59.050;17.416;2023-04-08T03:16:19;102426.44;;;2.38;78.36
12666;BME280;58531;59.050;17.416;2023-04-08T03:18:46;102428.63;;;2.36;78.57
12666;BME280;58531;59.050;17.416;2023-04-08T03:21:13;102424.81;;;2.34;79.56
12666;BME280;58531;59.050;17.416;2023-04-08T03:23:40;102432.72;;;2.34;79.12
12666;BME280;58531;59.050;17.416;2023-04-08T03:26:08;102422.50;;;2.32;78.95
12666;BME280;58531;59.050;17.416;2023-04-08T03:28:35;102426.66;;;2.33;78.36
12666;BME280;58531;59.050;17.416;2023-04-08T03:31:02;102431.50;;;2.31;78.79
12666;BME280;58531;59.050;17.416;2023-04-08T03:33:29;102437.56;;;2.32;78.63
12666;BME280;58531;59.050;17.416;2023-04-08T03:35:56;102426.22;;;2.31;78.79
12666;BME280;58531;59.050;17.416;2023-04-08T03:38:22;102436.78;;;2.31;78.86
12666;BME280;58531;59.050;17.416;2023-04-08T03:40:49;102430.31;;;2.29;79.05
12666;BME280;58531;59.050;17.416;2023-04-08T03:43:17;102430.31;;;2.29;79.16
12666;BME280;58531;59.050;17.416;2023-04-08T03:45:46;102435.59;;;2.29;78.75
12666;BME280;58531;59.050;17.416;2023-04-08T03:48:13;102428.44;;;2.29;78.65
12666;BME280;58531;59.050;17.416;2023-04-08T03:50:40;102434.50;;;2.30;78.94
12666;BME280;58531;59.050;17.416;2023-04-08T03:53:06;102431.75;;;2.27;78.64
12666;BME280;58531;59.050;17.416;2023-04-08T03:55:35;102433.97;;;2.25;78.97
12666;BME280;58531;59.050;17.416;2023-04-08T03:58:02;102433.31;;;2.28;78.81
12666;BME280;58531;59.050;17.416;2023-04-08T04:00:30;102438.47;;;2.24;78.81
12666;BME280;58531;59.050;17.416;2023-04-08T04:02:57;102434.19;;;2.20;79.18
12666;BME280;58531;59.050;17.416;2023-04-08T04:05:24;102435.72;;;2.21;79.14
12666;BME280;58531;59.050;17.416;2023-04-08T04:07:51;102443.22;;;2.19;78.81
12666;BME280;58531;59.050;17.416;2023-04-08T04:10:17;102440.34;;;2.24;78.96
12666;BME280;58531;59.050;17.416;2023-04-08T04:12:44;102442.97;;;2.24;78.53
12666;BME280;58531;59.050;17.416;2023-04-08T04:15:12;102444.50;;;2.25;78.40
12666;BME280;58531;59.050;17.416;2023-04-08T04:17:40;102447.16;;;2.25;78.22
12666;BME280;58531;59.050;17.416;2023-04-08T04:20:08;102444.94;;;2.27;78.01
12666;BME280;58531;59.050;17.416;2023-04-08T04:22:35;102449.13;;;2.28;78.01
12666;BME280;58531;59.050;17.416;2023-04-08T04:25:01;102450.38;;;2.33;78.04
12666;BME280;58531;59.050;17.416;2023-04-08T04:27:28;102458.31;;;2.33;77.86
12666;BME280;58531;59.050;17.416;2023-04-08T04:29:55;102453.47;;;2.35;77.88
12666;BME280;58531;59.050;17.416;2023-04-08T04:32:22;102458.72;;;2.35;77.51
12666;BME280;58531;59.050;17.416;2023-04-08T04:34:50;102464.00;;;2.35;77.78
12666;BME280;58531;59.050;17.416;2023-04-08T04:37:17;102456.66;;;2.41;77.20
12666;BME280;58531;59.050;17.416;2023-04-08T04:39:43;102458.50;;;2.40;77.63
12666;BME280;58531;59.050;17.416;2023-04-08T04:42:10;102453.91;;;2.37;77.39
12666;BME280;58531;59.050;17.416;2023-04-08T04:44:37;102458.84;;;2.39;77.32
12666;BME280;58531;59.050;17.416;2023-04-08T04:47:04;102462.59;;;2.38;77.50
12666;BME280;58531;59.050;17.416;2023-04-08T04:49:31;102458.84;;;2.39;77.34
12666;BME280;58531;59.050;17.416;2023-04-08T04:51:59;102448.06;;;2.44;77.36
12666;BME280;58531;59.050;17.416;2023-04-08T04:54:26;102450.34;;;2.45;77.27
12666;BME280;58531;59.050;17.416;2023-04-08T04:56:52;102452.31;;;2.48;77.01
12666;BME280;58531;59.050;17.416;2023-04-08T04:59:19;102454.72;;;2.53;76.58
12666;BME280;58531;59.050;17.416;2023-04-08T05:01:46;102467.81;;;2.50;76.85
12666;BME280;58531;59.050;17.416;2023-04-08T05:04:13;102464.59;;;2.56;76.76
12666;BME280;58531;59.050;17.416;2023-04-08T05:06:40;102462.72;;;2.57;76.81
12666;BME280;58531;59.050;17.416;2023-04-08T05:09:08;102459.34;;;2.56;76.44
12666;BME280;58531;59.050;17.416;2023-04-08T05:11:35;102460.19;;;2.60;76.21
12666;BME280;58531;59.050;17.416;2023-04-08T05:14:01;102458.75;;;2.63;76.10
12666;BME280;58531;59.050;17.416;2023-04-08T05:16:28;102466.34;;;2.64;75.99
12666;BME280;58531;59.050;17.416;2023-04-08T05:18:55;102466.78;;;2.66;76.08
12666;BME280;58531;59.050;17.416;2023-04-08T05:21:22;102474.00;;;2.69;76.18
12666;BME280;58531;59.050;17.416;2023-04-08T05:23:49;102470.28;;;2.70;75.59
12666;BME280;58531;59.050;17.416;2023-04-08T05:26:18;102464.56;;;2.68;75.50
12666;BME280;58531;59.050;17.416;2023-04-08T05:28:46;102471.81;;;2.71;75.34
12666;BME280;58531;59.050;17.416;2023-04-08T05:31:14;102480.91;;;2.74;76.17
12666;BME280;58531;59.050;17.416;2023-04-08T05:33:41;102476.41;;;2.74;75.45
12666;BME280;58531;59.050;17.416;2023-04-08T05:36:09;102478.22;;;2.86;75.36
12666;BME280;58531;59.050;17.416;2023-04-08T05:38:36;102479.75;;;2.87;74.27
12666;BME280;58531;59.050;17.416;2023-04-08T05:41:03;102468.59;;;2.93;75.00
12666;BME280;58531;59.050;17.416;2023-04-08T05:43:33;102475.84;;;2.96;74.37
12666;BME280;58531;59.050;17.416;2023-04-08T05:45:59;102483.75;;;2.96;73.89
12666;BME280;58531;59.050;17.416;2023-04-08T05:48:26;102486.09;;;2.98;74.36
12666;BME280;58531;59.050;17.416;2023-04-08T05:50:53;102480.88;;;3.01;73.81
12666;BME280;58531;59.050;17.416;2023-04-08T05:53:20;102491.56;;;3.05;73.49
12666;BME280;58531;59.050;17.416;2023-04-08T05:55:47;102486.16;;;3.01;73.20
12666;BME280;58531;59.050;17.416;2023-04-08T05:58:13;102487.81;;;3.06;73.54
12666;BME280;58531;59.050;17.416;2023-04-08T06:00:42;102481.81;;;3.09;73.14
12666;BME280;58531;59.050;17.416;2023-04-08T06:03:08;102494.44;;;3.15;72.73
12666;BME280;58531;59.050;17.416;2023-04-08T06:05:35;102496.41;;;3.18;73.41
12666;BME280;58531;59.050;17.416;2023-04-08T06:08:02;102498.88;;;3.27;72.44
12666;BME280;58531;59.050;17.416;2023-04-08T06:12:56;102509.69;;;3.37;72.55
12666;BME280;58531;59.050;17.416;2023-04-08T06:15:23;102511.41;;;3.45;72.17
12666;BME280;58531;59.050;17.416;2023-04-08T06:17:51;102512.03;;;3.54;70.81
12666;BME280;58531;59.050;17.416;2023-04-08T06:20:17;102510.91;;;3.55;71.21
12666;BME280;58531;59.050;17.416;2023-04-08T06:22:44;102517.91;;;3.63;70.70
12666;BME280;58531;59.050;17.416;2023-04-08T06:25:11;102512.63;;;3.63;70.10
12666;BME280;58531;59.050;17.416;2023-04-08T06:27:38;102528.38;;;3.75;70.02
12666;BME280;58531;59.050;17.416;2023-04-08T06:30:06;102518.06;;;3.85;69.63
12666;BME280;58531;59.050;17.416;2023-04-08T06:32:33;102527.50;;;4.02;69.33
12666;BME280;58531;59.050;17.416;2023-04-08T06:35:01;102524.69;;;3.95;68.31
12666;BME280;58531;59.050;17.416;2023-04-08T06:37:28;102531.19;;;3.97;68.68
12666;BME280;58531;59.050;17.416;2023-04-08T06:39:54;102529.19;;;4.10;67.64
12666;BME280;58531;59.050;17.416;2023-04-08T06:42:21;102528.94;;;4.15;67.66
12666;BME280;58531;59.050;17.416;2023-04-08T06:44:48;102526.88;;;4.24;67.40
12666;BME280;58531;59.050;17.416;2023-04-08T06:47:15;102530.63;;;4.42;67.51
12666;BME280;58531;59.050;17.416;2023-04-08T06:49:42;102529.34;;;4.51;66.18
12666;BME280;58531;59.050;17.416;2023-04-08T06:52:10;102541.69;;;4.81;65.55
12666;BME280;58531;59.050;17.416;2023-04-08T06:54:37;102538.44;;;5.10;63.88
12666;BME280;58531;59.050;17.416;2023-04-08T06:57:03;102533.72;;;5.00;63.43
12666;BME280;58531;59.050;17.416;2023-04-08T06:59:30;102538.03;;;5.08;63.95
12666;BME280;58531;59.050;17.416;2023-04-08T07:01:57;102545.13;;;5.04;63.09
12666;BME280;58531;59.050;17.416;2023-04-08T07:04:24;102542.50;;;5.04;63.12
12666;BME280;58531;59.050;17.416;2023-04-08T07:06:51;102537.94;;;5.24;63.54
12666;BME280;58531;59.050;17.416;2023-04-08T07:09:19;102539.94;;;5.08;62.78
12666;BME280;58531;59.050;17.416;2023-04-08T07:11:46;102545.00;;;4.97;63.47
12666;BME280;58531;59.050;17.416;2023-04-08T07:14:13;102546.41;;;4.91;63.70
12666;BME280;58531;59.050;17.416;2023-04-08T07:16:39;102545.50;;;4.84;63.82
12666;BME280;58531;59.050;17.416;2023-04-08T07:19:06;102546.53;;;4.98;63.42
12666;BME280;58531;59.050;17.416;2023-04-08T07:21:33;102540.84;;;5.19;63.08
12666;BME280;58531;59.050;17.416;2023-04-08T07:24:00;102540.88;;;5.41;62.09
12666;BME280;58531;59.050;17.416;2023-04-08T07:26:28;102539.28;;;5.78;60.68
12666;BME280;58531;59.050;17.416;2023-04-08T07:28:55;102547.59;;;6.02;59.03
12666;BME280;58531;59.050;17.416;2023-04-08T07:31:21;102547.38;;;6.14;58.85
12666;BME280;58531;59.050;17.416;2023-04-08T07:33:48;102551.06;;;6.32;58.27
12666;BME280;58531;59.050;17.416;2023-04-08T07:36:15;102559.44;;;6.64;57.25
12666;BME280;58531;59.050;17.416;2023-04-08T07:38:42;102554.63;;;7.05;56.33
12666;BME280;58531;59.050;17.416;2023-04-08T07:41:09;102558.78;;;7.86;53.52
12666;BME280;58531;59.050;17.416;2023-04-08T07:43:37;102556.94;;;7.97;53.17
12666;BME280;58531;59.050;17.416;2023-04-08T07:46:04;102554.78;;;8.13;54.01
12666;BME280;58531;59.050;17.416;2023-04-08T07:48:32;102560.13;;;7.66;53.17
12666;BME280;58531;59.050;17.416;2023-04-08T07:51:02;102559.44;;;7.29;54.43
12666;BME280;58531;59.050;17.416;2023-04-08T07:53:29;102562.75;;;7.19;54.50
12666;BME280;58531;59.050;17.416;2023-04-08T07:55:56;102566.47;;;7.15;54.59
12666;BME280;58531;59.050;17.416;2023-04-08T07:58:23;102558.13;;;7.13;53.91
12666;BME280;58531;59.050;17.416;2023-04-08T08:00:52;102554.94;;;7.00;54.46
12666;BME280;58531;59.050;17.416;2023-04-08T08:03:19;102562.50;;;6.98;54.62
12666;BME280;58531;59.050;17.416;2023-04-08T08:05:46;102571.69;;;7.04;54.35
12666;BME280;58531;59.050;17.416;2023-04-08T08:08:13;102568.78;;;7.16;54.53
12666;BME280;58531;59.050;17.416;2023-04-08T08:10:40;102573.31;;;7.16;53.86
12666;BME280;58531;59.050;17.416;2023-04-08T08:13:07;102559.91;;;7.02;54.04
12666;BME280;58531;59.050;17.416;2023-04-08T08:15:34;102570.84;;;6.97;54.11
12666;BME280;58531;59.050;17.416;2023-04-08T08:18:02;102564.09;;;7.06;54.05
12666;BME280;58531;59.050;17.416;2023-04-08T08:20:29;102569.34;;;6.99;53.36
12666;BME280;58531;59.050;17.416;2023-04-08T08:22:55;102564.03;;;6.99;52.44
12666;BME280;58531;59.050;17.416;2023-04-08T08:25:22;102564.81;;;7.00;53.23
12666;BME280;58531;59.050;17.416;2023-04-08T08:27:49;102574.75;;;7.06;53.18
12666;BME280;58531;59.050;17.416;2023-04-08T08:30:16;102566.38;;;7.04;52.75
12666;BME280;58531;59.050;17.416;2023-04-08T08:32:45;102572.56;;;7.15;52.06
12666;BME280;58531;59.050;17.416;2023-04-08T08:35:14;102576.31;;;7.11;51.67
12666;BME280;58531;59.050;17.416;2023-04-08T08:37:41;102579.56;;;7.30;51.35
12666;BME280;58531;59.050;17.416;2023-04-08T08:40:08;102575.94;;;7.49;50.73
12666;BME280;58531;59.050;17.416;2023-04-08T08:42:35;102571.25;;;7.75;50.55
12666;BME280;58531;59.050;17.416;2023-04-08T08:45:02;102573.78;;;7.61;49.42
12666;BME280;58531;59.050;17.416;2023-04-08T08:47:30;102572.16;;;7.50;49.27
12666;BME280;58531;59.050;17.416;2023-04-08T08:49:57;102581.41;;;7.66;50.41
12666;BME280;58531;59.050;17.416;2023-04-08T08:52:25;102575.72;;;7.28;52.04
12666;BME280;58531;59.050;17.416;2023-04-08T08:54:57;102577.47;;;7.50;51.88
12666;BME280;58531;59.050;17.416;2023-04-08T08:57:24;102570.84;;;7.73;49.96
12666;BME280;58531;59.050;17.416;2023-04-08T08:59:51;102573.41;;;8.10;50.36
12666;BME280;58531;59.050;17.416;2023-04-08T09:02:25;102566.91;;;8.07;49.77
12666;BME280;58531;59.050;17.416;2023-04-08T09:04:56;102567.44;;;8.23;50.08
12666;BME280;58531;59.050;17.416;2023-04-08T09:07:26;102563.63;;;8.24;49.45
12666;BME280;58531;59.050;17.416;2023-04-08T09:09:54;102570.34;;;8.11;49.63
12666;BME280;58531;59.050;17.416;2023-04-08T09:12:22;102562.09;;;8.23;49.69
12666;BME280;58531;59.050;17.416;2023-04-08T09:14:49;102556.72;;;8.16;47.10
12666;BME280;58531;59.050;17.416;2023-04-08T09:17:30;102555.88;;;8.05;47.50
12666;BME280;58531;59.050;17.416;2023-04-08T09:20:06;102561.97;;;8.09;48.06
12666;BME280;58531;59.050;17.416;2023-04-08T09:22:54;102564.44;;;8.28;49.49
12666;BME280;58531;59.050;17.416;2023-04-08T09:25:25;102555.34;;;8.36;47.77
12666;BME280;58531;59.050;17.416;2023-04-08T09:27:52;102558.41;;;8.45;48.66
12666;BME280;58531;59.050;17.416;2023-04-08T09:30:21;102554.53;;;8.25;48.83
12666;BME280;58531;59.050;17.416;2023-04-08T09:32:48;102556.06;;;8.29;48.41
12666;BME280;58531;59.050;17.416;2023-04-08T09:35:16;102555.34;;;8.36;47.98
12666;BME280;58531;59.050;17.416;2023-04-08T09:37:45;102553.00;;;8.24;47.90
12666;BME280;58531;59.050;17.416;2023-04-08T09:40:12;102549.59;;;8.27;45.68
12666;BME280;58531;59.050;17.416;2023-04-08T09:42:44;102548.06;;;8.26;45.19
12666;BME280;58531;59.050;17.416;2023-04-08T09:45:13;102551.38;;;8.16;44.77
12666;BME280;58531;59.050;17.416;2023-04-08T09:47:47;102551.50;;;8.30;44.39
12666;BME280;58531;59.050;17.416;2023-04-08T09:50:19;102550.38;;;8.31;43.79
12666;BME280;58531;59.050;17.416;2023-04-08T09:52:52;102555.31;;;8.29;43.10
12666;BME280;58531;59.050;17.416;2023-04-08T09:55:22;102557.63;;;8.34;44.41
12666;BME280;58531;59.050;17.416;2023-04-08T09:57:54;102557.19;;;8.28;44.79
12666;BME280;58531;59.050;17.416;2023-04-08T10:00:28;102554.59;;;8.42;43.56
12666;BME280;58531;59.050;17.416;2023-04-08T10:03:01;102555.47;;;8.64;44.20
12666;BME280;58531;59.050;17.416;2023-04-08T10:05:34;102552.06;;;8.63;43.41
12666;BME280;58531;59.050;17.416;2023-04-08T10:08:04;102558.56;;;8.76;44.11
12666;BME280;58531;59.050;17.416;2023-04-08T10:10:31;102556.22;;;8.61;43.40
12666;BME280;58531;59.050;17.416;2023-04-08T10:13:00;102555.44;;;8.53;43.35
12666;BME280;58531;59.050;17.416;2023-04-08T10:15:28;102551.25;;;8.56;43.12
12666;BME280;58531;59.050;17.416;2023-04-08T10:18:29;102554.41;;;8.79;42.84
12666;BME280;58531;59.050;17.416;2023-04-08T10:20:44;102552.94;;;8.92;42.24
12666;BME280;58531;59.050;17.416;2023-04-08T10:23:13;102550.66;;;8.97;41.94
12666;BME280;58531;59.050;17.416;2023-04-08T10:25:41;102553.25;;;8.83;42.24
12666;BME280;58531;59.050;17.416;2023-04-08T10:28:24;102549.09;;;8.86;42.25
12666;BME280;58531;59.050;17.416;2023-04-08T10:30:52;102545.69;;;8.96;41.80
12666;BME280;58531;59.050;17.416;2023-04-08T10:33:21;102548.75;;;9.05;41.79
12666;BME280;58531;59.050;17.416;2023-04-08T10:35:52;102551.81;;;9.03;40.60
12666;BME280;58531;59.050;17.416;2023-04-08T10:38:20;102551.06;;;9.10;41.08
12666;BME280;58531;59.050;17.416;2023-04-08T10:40:48;102551.06;;;9.17;39.53
12666;BME280;58531;59.050;17.416;2023-04-08T10:43:16;102549.16;;;9.14;39.03
12666;BME280;58531;59.050;17.416;2023-04-08T10:45:43;102546.50;;;9.10;38.78
12666;BME280;58531;59.050;17.416;2023-04-08T10:48:12;102560.53;;;8.97;39.75
12666;BME280;58531;59.050;17.416;2023-04-08T10:50:39;102552.16;;;9.02;40.18
12666;BME280;58531;59.050;17.416;2023-04-08T10:53:06;102543.44;;;9.05;39.05
12666;BME280;58531;59.050;17.416;2023-04-08T10:55:35;102546.47;;;9.00;39.03
12666;BME280;58531;59.050;17.416;2023-04-08T10:58:06;102541.53;;;9.09;41.11
12666;BME280;58531;59.050;17.416;2023-04-08T11:00:34;102541.94;;;9.18;41.32
12666;BME280;58531;59.050;17.416;2023-04-08T11:03:02;102543.84;;;9.10;38.05
12666;BME280;58531;59.050;17.416;2023-04-08T11:05:29;102551.06;;;9.06;38.41
12666;BME280;58531;59.050;17.416;2023-04-08T11:07:57;102534.31;;;9.09;39.50
12666;BME280;58531;59.050;17.416;2023-04-08T11:10:24;102538.16;;;9.26;39.36
12666;BME280;58531;59.050;17.416;2023-04-08T11:12:53;102531.31;;;9.32;38.70
12666;BME280;58531;59.050;17.416;2023-04-08T11:15:20;102534.72;;;9.32;38.15
12666;BME280;58531;59.050;17.416;2023-04-08T11:17:47;102533.56;;;9.33;37.22
12666;BME280;58531;59.050;17.416;2023-04-08T11:20:15;102533.56;;;9.43;39.03
12666;BME280;58531;59.050;17.416;2023-04-08T11:22:43;102533.59;;;9.50;37.75
12666;BME280;58531;59.050;17.416;2023-04-08T11:25:10;102529.78;;;9.55;38.13
12666;BME280;58531;59.050;17.416;2023-04-08T11:27:37;102530.53;;;9.62;38.23
12666;BME280;58531;59.050;17.416;2023-04-08T11:30:08;102525.97;;;9.52;38.49
12666;BME280;58531;59.050;17.416;2023-04-08T11:32:36;102527.50;;;9.67;38.43
12666;BME280;58531;59.050;17.416;2023-04-08T11:35:04;102530.53;;;9.73;37.65
12666;BME280;58531;59.050;17.416;2023-04-08T11:37:37;102525.97;;;9.66;37.16
12666;BME280;58531;59.050;17.416;2023-04-08T11:40:09;102524.84;;;9.74;37.88
12666;BME280;58531;59.050;17.416;2023-04-08T11:42:38;102532.84;;;9.74;37.81
12666;BME280;58531;59.050;17.416;2023-04-08T11:45:13;102531.31;;;9.80;36.85
12666;BME280;58531;59.050;17.416;2023-04-08T11:47:40;102525.22;;;9.83;37.09
12666;BME280;58531;59.050;17.416;2023-04-08T11:50:08;102528.25;;;9.78;38.01
12666;BME280;58531;59.050;17.416;2023-04-08T11:52:42;102528.63;;;9.66;36.61
12666;BME280;58531;59.050;17.416;2023-04-08T11:55:09;102532.09;;;9.60;37.90
12666;BME280;58531;59.050;17.416;2023-04-08T11:57:37;102536.25;;;9.57;37.43
12666;BME280;58531;59.050;17.416;2023-04-08T12:00:04;102526.72;;;9.74;38.34
12666;BME280;58531;59.050;17.416;2023-04-08T12:02:33;102516.81;;;9.78;39.00
12666;BME280;58531;59.050;17.416;2023-04-08T12:05:00;102525.22;;;9.90;39.99
12666;BME280;58531;59.050;17.416;2023-04-08T12:07:27;102529.00;;;10.03;39.30
12666;BME280;58531;59.050;17.416;2023-04-08T12:09:54;102522.13;;;9.99;37.21
12666;BME280;58531;59.050;17.416;2023-04-08T12:12:21;102514.53;;;10.01;36.83
12666;BME280;58531;59.050;17.416;2023-04-08T12:14:47;102519.09;;;9.90;36.30
12666;BME280;58531;59.050;17.416;2023-04-08T12:17:14;102512.63;;;10.01;37.62
12666;BME280;58531;59.050;17.416;2023-04-08T12:19:42;102515.66;;;10.07;36.77
12666;BME280;58531;59.050;17.416;2023-04-08T12:22:09;102505.38;;;9.91;35.34
12666;BME280;58531;59.050;17.416;2023-04-08T12:24:36;102508.44;;;9.93;35.88
12666;BME280;58531;59.050;17.416;2023-04-08T12:27:03;102505.34;;;10.05;35.75
12666;BME280;58531;59.050;17.416;2023-04-08T12:29:31;102504.19;;;9.99;35.50
12666;BME280;58531;59.050;17.416;2023-04-08T12:31:58;102504.59;;;10.19;35.77
12666;BME280;58531;59.050;17.416;2023-04-08T12:34:25;102502.25;;;10.24;36.22
12666;BME280;58531;59.050;17.416;2023-04-08T12:36:53;102496.13;;;10.41;36.11
12666;BME280;58531;59.050;17.416;2023-04-08T12:39:20;102507.59;;;10.24;34.94
12666;BME280;58531;59.050;17.416;2023-04-08T12:41:47;102496.56;;;10.15;36.00
12666;BME280;58531;59.050;17.416;2023-04-08T12:44:14;102498.09;;;10.09;35.42
12666;BME280;58531;59.050;17.416;2023-04-08T12:46:41;102484.75;;;10.09;35.99
12666;BME280;58531;59.050;17.416;2023-04-08T12:49:07;102487.78;;;10.25;36.34
12666;BME280;58531;59.050;17.416;2023-04-08T12:51:34;102480.84;;;10.35;37.99
12666;BME280;58531;59.050;17.416;2023-04-08T12:54:03;102480.09;;;10.41;35.40
12666;BME280;58531;59.050;17.416;2023-04-08T12:56:30;102483.56;;;10.28;35.69